Wallace, Nebraska
Current Conditions -  °F | °C
As of 8:53 AM on Thursday 23 Oct 2014 (Local Time) from KLBF Reporting Station
Broken Clouds Broken Clouds  
Wind Chill: 38°   Ceiling: 100
Heat Index: 38°   Visibility: 7mi
Dew Point: 38°   Wind: 0mph
Humidity: 100%   Direction: NA
Pressure: 30.1"   Gusts: NA
Location:  40.84°N, 101.16°W
Report Text: KLBF 231353Z AUTO 00000KT 7SM BKN001 03/03 A3010 RMK AO2 SLP199 T00330033
Loading
Personal Weather Stations






























Interactive Weather Map
Tropical Storm Tracking
New forecast layout! Learn more

10-Day Weather Forecast

Advertisements
Track Severe Weather on mobile